Woodsfield, Ohio
Current Conditions -  °F | °C
As of 6:53 AM on Friday 28 Nov 2014 (Local Time) from KPKB Reporting Station
Broken Clouds Broken Clouds  
Wind Chill: 19°   Ceiling: 5000
Heat Index: 26°   Visibility: 10mi
Dew Point: 19°   Wind: 6mph
Humidity: 75%   Direction: 290°WNW
Pressure: 30.39"   Gusts: NA
Location:  39.76°N, 81.12°W
Report Text: KPKB 281153Z AUTO 29005KT 10SM BKN050 M03/M07 A3039 RMK AO2 SLP299 T10331072 11017 21033 52011
Loading
Personal Weather Stations






























Interactive Weather Map New forecast layout! Learn more

10-Day Weather Forecast

Advertisements
Track Severe Weather on mobile